sensor_id;sensor_type;location;lat;lon;timestamp;P1;durP1;ratioP1;P2;durP2;ratioP2
9767;SDS011;4923;52.520;13.494;2023-11-25T00:00:05;3.28;;;0.60;;
9767;SDS011;4923;52.520;13.494;2023-11-25T00:02:55;1.48;;;0.50;;
9767;SDS011;4923;52.520;13.494;2023-11-25T00:05:42;0.70;;;0.40;;
9767;SDS011;4923;52.520;13.494;2023-11-25T00:08:29;3.22;;;0.40;;
9767;SDS011;4923;52.520;13.494;2023-11-25T00:11:16;1.17;;;0.88;;
9767;SDS011;4923;52.520;13.494;2023-11-25T00:14:05;1.13;;;0.43;;
9767;SDS011;4923;52.520;13.494;2023-11-25T00:16:52;4.20;;;0.60;;
9767;SDS011;4923;52.520;13.494;2023-11-25T00:19:38;1.95;;;0.88;;
9767;SDS011;4923;52.520;13.494;2023-11-25T00:22:25;1.27;;;0.55;;
9767;SDS011;4923;52.520;13.494;2023-11-25T00:25:12;1.63;;;0.80;;
9767;SDS011;4923;52.520;13.494;2023-11-25T00:28:00;2.85;;;0.80;;
9767;SDS011;4923;52.520;13.494;2023-11-25T00:30:48;2.88;;;1.00;;
9767;SDS011;4923;52.520;13.494;2023-11-25T00:33:35;3.58;;;0.82;;
9767;SDS011;4923;52.520;13.494;2023-11-25T00:36:22;1.55;;;0.63;;
9767;SDS011;4923;52.520;13.494;2023-11-25T00:39:09;2.95;;;0.98;;
9767;SDS011;4923;52.520;13.494;2023-11-25T00:41:57;4.30;;;1.10;;
9767;SDS011;4923;52.520;13.494;2023-11-25T00:44:43;1.70;;;0.70;;
9767;SDS011;4923;52.520;13.494;2023-11-25T00:47:32;4.32;;;0.95;;
9767;SDS011;4923;52.520;13.494;2023-11-25T00:50:20;0.65;;;0.65;;
9767;SDS011;4923;52.520;13.494;2023-11-25T00:53:07;4.88;;;0.70;;
9767;SDS011;4923;52.520;13.494;2023-11-25T00:55:54;0.90;;;0.70;;
9767;SDS011;4923;52.520;13.494;2023-11-25T00:58:41;0.90;;;0.90;;
9767;SDS011;4923;52.520;13.494;2023-11-25T01:01:28;3.95;;;0.80;;
9767;SDS011;4923;52.520;13.494;2023-11-25T01:04:17;0.73;;;0.60;;
9767;SDS011;4923;52.520;13.494;2023-11-25T01:07:04;0.93;;;0.60;;
9767;SDS011;4923;52.520;13.494;2023-11-25T01:09:51;1.70;;;1.08;;
9767;SDS011;4923;52.520;13.494;2023-11-25T01:12:38;0.65;;;0.65;;
9767;SDS011;4923;52.520;13.494;2023-11-25T01:15:24;2.03;;;0.60;;
9767;SDS011;4923;52.520;13.494;2023-11-25T01:18:11;11.63;;;0.85;;
9767;SDS011;4923;52.520;13.494;2023-11-25T01:20:59;4.63;;;0.70;;
9767;SDS011;4923;52.520;13.494;2023-11-25T01:23:46;1.85;;;0.68;;
9767;SDS011;4923;52.520;13.494;2023-11-25T01:26:33;1.05;;;0.60;;
9767;SDS011;4923;52.520;13.494;2023-11-25T01:29:20;1.65;;;0.73;;
9767;SDS011;4923;52.520;13.494;2023-11-25T01:32:08;1.00;;;0.60;;
9767;SDS011;4923;52.520;13.494;2023-11-25T01:34:54;1.10;;;0.40;;
9767;SDS011;4923;52.520;13.494;2023-11-25T01:37:42;1.85;;;0.50;;
9767;SDS011;4923;52.520;13.494;2023-11-25T01:40:29;3.33;;;0.40;;
9767;SDS011;4923;52.520;13.494;2023-11-25T01:43:18;1.00;;;0.57;;
9767;SDS011;4923;52.520;13.494;2023-11-25T01:46:08;4.30;;;0.75;;
9767;SDS011;4923;52.520;13.494;2023-11-25T01:48:56;2.08;;;0.60;;
9767;SDS011;4923;52.520;13.494;2023-11-25T01:51:43;1.17;;;0.80;;
9767;SDS011;4923;52.520;13.494;2023-11-25T01:54:34;2.30;;;0.60;;
9767;SDS011;4923;52.520;13.494;2023-11-25T01:57:21;7.50;;;0.60;;
9767;SDS011;4923;52.520;13.494;2023-11-25T02:00:08;0.60;;;0.47;;
9767;SDS011;4923;52.520;13.494;2023-11-25T02:02:59;1.13;;;0.40;;
9767;SDS011;4923;52.520;13.494;2023-11-25T02:05:46;1.95;;;0.65;;
9767;SDS011;4923;52.520;13.494;2023-11-25T02:08:33;6.43;;;0.45;;
9767;SDS011;4923;52.520;13.494;2023-11-25T02:11:21;1.63;;;0.95;;
9767;SDS011;4923;52.520;13.494;2023-11-25T02:14:08;3.78;;;0.40;;
9767;SDS011;4923;52.520;13.494;2023-11-25T02:16:55;0.30;;;0.30;;
9767;SDS011;4923;52.520;13.494;2023-11-25T02:19:42;0.40;;;0.40;;
9767;SDS011;4923;52.520;13.494;2023-11-25T02:22:29;0.47;;;0.47;;
9767;SDS011;4923;52.520;13.494;2023-11-25T02:25:17;0.95;;;0.40;;
9767;SDS011;4923;52.520;13.494;2023-11-25T02:28:07;3.80;;;0.40;;
9767;SDS011;4923;52.520;13.494;2023-11-25T02:30:54;1.45;;;0.63;;
9767;SDS011;4923;52.520;13.494;2023-11-25T02:33:42;4.63;;;0.60;;
9767;SDS011;4923;52.520;13.494;2023-11-25T02:36:29;1.00;;;0.40;;
9767;SDS011;4923;52.520;13.494;2023-11-25T02:39:17;0.47;;;0.30;;
9767;SDS011;4923;52.520;13.494;2023-11-25T02:42:05;6.43;;;0.40;;
9767;SDS011;4923;52.520;13.494;2023-11-25T02:44:54;0.82;;;0.40;;
9767;SDS011;4923;52.520;13.494;2023-11-25T02:47:41;7.70;;;0.63;;
9767;SDS011;4923;52.520;13.494;2023-11-25T02:50:29;5.80;;;0.55;;
9767;SDS011;4923;52.520;13.494;2023-11-25T02:53:16;0.63;;;0.30;;
9767;SDS011;4923;52.520;13.494;2023-11-25T02:56:03;1.02;;;0.40;;
9767;SDS011;4923;52.520;13.494;2023-11-25T02:58:52;0.40;;;0.40;;
9767;SDS011;4923;52.520;13.494;2023-11-25T03:01:39;1.65;;;0.47;;
9767;SDS011;4923;52.520;13.494;2023-11-25T03:04:33;0.45;;;0.35;;
9767;SDS011;4923;52.520;13.494;2023-11-25T03:07:22;1.85;;;0.40;;
9767;SDS011;4923;52.520;13.494;2023-11-25T03:10:09;2.00;;;0.40;;
9767;SDS011;4923;52.520;13.494;2023-11-25T03:12:58;2.88;;;0.45;;
9767;SDS011;4923;52.520;13.494;2023-11-25T03:15:46;0.55;;;0.45;;
9767;SDS011;4923;52.520;13.494;2023-11-25T03:18:34;0.30;;;0.30;;
9767;SDS011;4923;52.520;13.494;2023-11-25T03:21:21;5.80;;;0.55;;
9767;SDS011;4923;52.520;13.494;2023-11-25T03:24:08;2.53;;;0.35;;
9767;SDS011;4923;52.520;13.494;2023-11-25T03:26:55;0.85;;;0.40;;
9767;SDS011;4923;52.520;13.494;2023-11-25T03:29:43;2.55;;;0.55;;
9767;SDS011;4923;52.520;13.494;2023-11-25T03:32:31;1.40;;;0.40;;
9767;SDS011;4923;52.520;13.494;2023-11-25T03:35:20;1.17;;;0.40;;
9767;SDS011;4923;52.520;13.494;2023-11-25T03:38:06;0.63;;;0.40;;
9767;SDS011;4923;52.520;13.494;2023-11-25T03:40:54;4.80;;;0.45;;
9767;SDS011;4923;52.520;13.494;2023-11-25T03:43:40;6.60;;;0.50;;
9767;SDS011;4923;52.520;13.494;2023-11-25T03:46:27;0.35;;;0.30;;
9767;SDS011;4923;52.520;13.494;2023-11-25T03:49:15;2.50;;;0.47;;
9767;SDS011;4923;52.520;13.494;2023-11-25T03:52:02;0.47;;;0.40;;
9767;SDS011;4923;52.520;13.494;2023-11-25T03:54:49;1.42;;;0.38;;
9767;SDS011;4923;52.520;13.494;2023-11-25T03:57:37;5.95;;;0.47;;
9767;SDS011;4923;52.520;13.494;2023-11-25T04:00:24;1.67;;;0.50;;
9767;SDS011;4923;52.520;13.494;2023-11-25T04:03:11;1.75;;;0.40;;
9767;SDS011;4923;52.520;13.494;2023-11-25T04:05:59;5.55;;;0.40;;
9767;SDS011;4923;52.520;13.494;2023-11-25T04:08:46;1.08;;;0.50;;
9767;SDS011;4923;52.520;13.494;2023-11-25T04:11:34;3.30;;;0.40;;
9767;SDS011;4923;52.520;13.494;2023-11-25T04:14:21;5.78;;;0.50;;
9767;SDS011;4923;52.520;13.494;2023-11-25T04:17:11;1.85;;;0.50;;
9767;SDS011;4923;52.520;13.494;2023-11-25T04:19:57;2.90;;;0.50;;
9767;SDS011;4923;52.520;13.494;2023-11-25T04:22:46;0.95;;;0.45;;
9767;SDS011;4923;52.520;13.494;2023-11-25T04:25:34;0.70;;;0.60;;
9767;SDS011;4923;52.520;13.494;2023-11-25T04:28:21;3.83;;;0.52;;
9767;SDS011;4923;52.520;13.494;2023-11-25T04:31:08;2.70;;;0.75;;
9767;SDS011;4923;52.520;13.494;2023-11-25T04:33:55;0.80;;;0.80;;
9767;SDS011;4923;52.520;13.494;2023-11-25T04:36:42;0.75;;;0.50;;
9767;SDS011;4923;52.520;13.494;2023-11-25T04:39:31;1.95;;;0.70;;
9767;SDS011;4923;52.520;13.494;2023-11-25T04:42:17;3.50;;;1.25;;
9767;SDS011;4923;52.520;13.494;2023-11-25T04:45:06;1.95;;;0.75;;
9767;SDS011;4923;52.520;13.494;2023-11-25T04:48:00;1.67;;;0.75;;
9767;SDS011;4923;52.520;13.494;2023-11-25T04:50:47;2.70;;;0.90;;
9767;SDS011;4923;52.520;13.494;2023-11-25T04:53:34;2.40;;;0.73;;
9767;SDS011;4923;52.520;13.494;2023-11-25T04:56:22;3.42;;;0.80;;
9767;SDS011;4923;52.520;13.494;2023-11-25T04:59:09;2.50;;;0.85;;
9767;SDS011;4923;52.520;13.494;2023-11-25T05:01:56;1.63;;;1.23;;
9767;SDS011;4923;52.520;13.494;2023-11-25T05:04:43;5.57;;;0.90;;
9767;SDS011;4923;52.520;13.494;2023-11-25T05:07:30;2.75;;;0.70;;
9767;SDS011;4923;52.520;13.494;2023-11-25T05:10:17;9.30;;;1.00;;
9767;SDS011;4923;52.520;13.494;2023-11-25T05:13:06;1.30;;;0.60;;
9767;SDS011;4923;52.520;13.494;2023-11-25T05:15:54;1.58;;;0.85;;
9767;SDS011;4923;52.520;13.494;2023-11-25T05:18:41;1.08;;;0.80;;
9767;SDS011;4923;52.520;13.494;2023-11-25T05:21:27;0.70;;;0.50;;
9767;SDS011;4923;52.520;13.494;2023-11-25T05:24:15;0.95;;;0.80;;
9767;SDS011;4923;52.520;13.494;2023-11-25T05:27:02;4.53;;;0.90;;
9767;SDS011;4923;52.520;13.494;2023-11-25T05:29:50;6.05;;;1.08;;
9767;SDS011;4923;52.520;13.494;2023-11-25T05:32:37;6.25;;;0.85;;
9767;SDS011;4923;52.520;13.494;2023-11-25T05:35:24;1.23;;;0.68;;
9767;SDS011;4923;52.520;13.494;2023-11-25T05:38:11;3.65;;;0.90;;
9767;SDS011;4923;52.520;13.494;2023-11-25T05:40:58;5.38;;;0.90;;
9767;SDS011;4923;52.520;13.494;2023-11-25T05:43:45;22.13;;;1.10;;
9767;SDS011;4923;52.520;13.494;2023-11-25T05:46:36;5.32;;;0.70;;
9767;SDS011;4923;52.520;13.494;2023-11-25T05:49:23;2.08;;;0.88;;
9767;SDS011;4923;52.520;13.494;2023-11-25T05:52:10;1.00;;;0.70;;
9767;SDS011;4923;52.520;13.494;2023-11-25T05:54:57;3.90;;;0.65;;
9767;SDS011;4923;52.520;13.494;2023-11-25T05:57:44;3.72;;;0.65;;
9767;SDS011;4923;52.520;13.494;2023-11-25T06:00:31;5.70;;;0.68;;
9767;SDS011;4923;52.520;13.494;2023-11-25T06:03:20;0.55;;;0.55;;
9767;SDS011;4923;52.520;13.494;2023-11-25T06:06:08;7.88;;;0.63;;
9767;SDS011;4923;52.520;13.494;2023-11-25T06:08:56;4.75;;;0.75;;
9767;SDS011;4923;52.520;13.494;2023-11-25T06:11:43;10.05;;;1.25;;
9767;SDS011;4923;52.520;13.494;2023-11-25T06:14:30;2.50;;;0.47;;
9767;SDS011;4923;52.520;13.494;2023-11-25T06:17:18;0.85;;;0.60;;
9767;SDS011;4923;52.520;13.494;2023-11-25T06:20:08;1.98;;;0.77;;
9767;SDS011;4923;52.520;13.494;2023-11-25T06:22:55;2.78;;;0.75;;
9767;SDS011;4923;52.520;13.494;2023-11-25T06:25:42;5.20;;;1.30;;
9767;SDS011;4923;52.520;13.494;2023-11-25T06:28:29;1.83;;;0.50;;
9767;SDS011;4923;52.520;13.494;2023-11-25T06:31:16;7.53;;;0.60;;
9767;SDS011;4923;52.520;13.494;2023-11-25T06:34:03;5.47;;;0.90;;
9767;SDS011;4923;52.520;13.494;2023-11-25T06:36:52;1.75;;;0.60;;
9767;SDS011;4923;52.520;13.494;2023-11-25T06:39:38;4.68;;;0.85;;
9767;SDS011;4923;52.520;13.494;2023-11-25T06:42:25;0.60;;;0.40;;
9767;SDS011;4923;52.520;13.494;2023-11-25T06:45:12;3.13;;;0.70;;
9767;SDS011;4923;52.520;13.494;2023-11-25T06:48:00;5.28;;;0.70;;
9767;SDS011;4923;52.520;13.494;2023-11-25T06:50:47;2.28;;;0.50;;
9767;SDS011;4923;52.520;13.494;2023-11-25T06:53:35;1.55;;;1.05;;
9767;SDS011;4923;52.520;13.494;2023-11-25T06:56:25;1.85;;;0.55;;
9767;SDS011;4923;52.520;13.494;2023-11-25T06:59:12;6.97;;;0.63;;
9767;SDS011;4923;52.520;13.494;2023-11-25T07:01:59;5.45;;;0.63;;
9767;SDS011;4923;52.520;13.494;2023-11-25T07:04:46;5.10;;;0.98;;
9767;SDS011;4923;52.520;13.494;2023-11-25T07:07:33;15.43;;;1.00;;
9767;SDS011;4923;52.520;13.494;2023-11-25T07:10:21;1.23;;;0.70;;
9767;SDS011;4923;52.520;13.494;2023-11-25T07:13:08;17.40;;;0.95;;
9767;SDS011;4923;52.520;13.494;2023-11-25T07:15:54;3.67;;;1.00;;
9767;SDS011;4923;52.520;13.494;2023-11-25T07:18:42;4.53;;;0.98;;
9767;SDS011;4923;52.520;13.494;2023-11-25T07:21:31;2.78;;;0.70;;
9767;SDS011;4923;52.520;13.494;2023-11-25T07:24:18;6.32;;;0.98;;
9767;SDS011;4923;52.520;13.494;2023-11-25T07:27:06;6.75;;;0.80;;
9767;SDS011;4923;52.520;13.494;2023-11-25T07:29:56;6.13;;;0.77;;
9767;SDS011;4923;52.520;13.494;2023-11-25T07:32:46;13.98;;;1.10;;
9767;SDS011;4923;52.520;13.494;2023-11-25T07:35:33;1.45;;;0.90;;
9767;SDS011;4923;52.520;13.494;2023-11-25T07:38:20;4.63;;;0.60;;
9767;SDS011;4923;52.520;13.494;2023-11-25T07:41:06;3.00;;;0.85;;
9767;SDS011;4923;52.520;13.494;2023-11-25T07:44:02;2.67;;;0.85;;
9767;SDS011;4923;52.520;13.494;2023-11-25T07:46:49;2.20;;;0.60;;
9767;SDS011;4923;52.520;13.494;2023-11-25T07:49:36;0.90;;;0.50;;
9767;SDS011;4923;52.520;13.494;2023-11-25T07:52:23;12.65;;;0.85;;
9767;SDS011;4923;52.520;13.494;2023-11-25T07:55:10;0.85;;;0.40;;
9767;SDS011;4923;52.520;13.494;2023-11-25T07:57:57;2.20;;;0.90;;
9767;SDS011;4923;52.520;13.494;2023-11-25T08:00:46;1.33;;;0.50;;
9767;SDS011;4923;52.520;13.494;2023-11-25T08:03:33;1.63;;;0.50;;
9767;SDS011;4923;52.520;13.494;2023-11-25T08:06:20;2.88;;;0.73;;
9767;SDS011;4923;52.520;13.494;2023-11-25T08:09:10;1.00;;;0.70;;
9767;SDS011;4923;52.520;13.494;2023-11-25T08:11:57;2.47;;;0.90;;
9767;SDS011;4923;52.520;13.494;2023-11-25T08:14:44;1.67;;;0.98;;
9767;SDS011;4923;52.520;13.494;2023-11-25T08:17:33;0.80;;;0.60;;
9767;SDS011;4923;52.520;13.494;2023-11-25T08:20:21;2.50;;;0.85;;
9767;SDS011;4923;52.520;13.494;2023-11-25T08:23:08;4.82;;;1.05;;
9767;SDS011;4923;52.520;13.494;2023-11-25T08:25:55;3.13;;;0.57;;
9767;SDS011;4923;52.520;13.494;2023-11-25T08:28:42;1.80;;;0.82;;
9767;SDS011;4923;52.520;13.494;2023-11-25T08:31:29;8.30;;;0.90;;
9767;SDS011;4923;52.520;13.494;2023-11-25T08:34:17;3.20;;;0.50;;
9767;SDS011;4923;52.520;13.494;2023-11-25T08:37:04;5.78;;;0.93;;
9767;SDS011;4923;52.520;13.494;2023-11-25T08:39:53;9.35;;;0.82;;
9767;SDS011;4923;52.520;13.494;2023-11-25T08:42:40;0.70;;;0.70;;
9767;SDS011;4923;52.520;13.494;2023-11-25T08:45:27;4.03;;;0.80;;
9767;SDS011;4923;52.520;13.494;2023-11-25T08:48:14;9.27;;;1.15;;
9767;SDS011;4923;52.520;13.494;2023-11-25T08:51:02;5.40;;;0.75;;
9767;SDS011;4923;52.520;13.494;2023-11-25T08:53:50;0.50;;;0.50;;
9767;SDS011;4923;52.520;13.494;2023-11-25T08:56:39;2.10;;;0.60;;
9767;SDS011;4923;52.520;13.494;2023-11-25T08:59:26;2.28;;;0.95;;
9767;SDS011;4923;52.520;13.494;2023-11-25T09:02:13;0.50;;;0.50;;
9767;SDS011;4923;52.520;13.494;2023-11-25T09:05:07;3.00;;;0.90;;
9767;SDS011;4923;52.520;13.494;2023-11-25T09:07:57;3.03;;;0.90;;
9767;SDS011;4923;52.520;13.494;2023-11-25T09:10:44;7.60;;;0.95;;
9767;SDS011;4923;52.520;13.494;2023-11-25T09:13:31;2.75;;;1.00;;
9767;SDS011;4923;52.520;13.494;2023-11-25T09:16:18;0.60;;;0.60;;
9767;SDS011;4923;52.520;13.494;2023-11-25T09:19:05;3.63;;;0.82;;
9767;SDS011;4923;52.520;13.494;2023-11-25T09:21:53;1.70;;;0.70;;
9767;SDS011;4923;52.520;13.494;2023-11-25T09:24:41;0.63;;;0.40;;
9767;SDS011;4923;52.520;13.494;2023-11-25T09:27:29;3.60;;;0.63;;
9767;SDS011;4923;52.520;13.494;2023-11-25T09:30:16;1.70;;;0.75;;
9767;SDS011;4923;52.520;13.494;2023-11-25T09:33:03;2.25;;;0.68;;
9767;SDS011;4923;52.520;13.494;2023-11-25T09:35:50;3.40;;;1.00;;
9767;SDS011;4923;52.520;13.494;2023-11-25T09:38:37;4.32;;;0.70;;
9767;SDS011;4923;52.520;13.494;2023-11-25T09:41:25;0.60;;;0.60;;
9767;SDS011;4923;52.520;13.494;2023-11-25T09:44:16;2.30;;;0.90;;
9767;SDS011;4923;52.520;13.494;2023-11-25T09:47:04;1.50;;;0.70;;
9767;SDS011;4923;52.520;13.494;2023-11-25T09:49:51;5.18;;;1.85;;
9767;SDS011;4923;52.520;13.494;2023-11-25T09:52:39;5.47;;;0.55;;
9767;SDS011;4923;52.520;13.494;2023-11-25T09:55:33;2.65;;;0.55;;
9767;SDS011;4923;52.520;13.494;2023-11-25T09:58:23;3.10;;;0.50;;
9767;SDS011;4923;52.520;13.494;2023-11-25T10:01:10;3.25;;;0.80;;
9767;SDS011;4923;52.520;13.494;2023-11-25T10:03:58;3.42;;;0.50;;
9767;SDS011;4923;52.520;13.494;2023-11-25T10:06:48;4.03;;;0.70;;
9767;SDS011;4923;52.520;13.494;2023-11-25T10:09:39;2.78;;;0.60;;
9767;SDS011;4923;52.520;13.494;2023-11-25T10:12:26;8.25;;;0.60;;
9767;SDS011;4923;52.520;13.494;2023-11-25T10:15:14;3.30;;;1.23;;
9767;SDS011;4923;52.520;13.494;2023-11-25T10:18:01;5.30;;;0.82;;
9767;SDS011;4923;52.520;13.494;2023-11-25T10:20:50;3.85;;;0.82;;
9767;SDS011;4923;52.520;13.494;2023-11-25T10:23:42;2.10;;;0.77;;
9767;SDS011;4923;52.520;13.494;2023-11-25T10:26:29;6.35;;;0.90;;
9767;SDS011;4923;52.520;13.494;2023-11-25T10:29:18;3.10;;;0.88;;
9767;SDS011;4923;52.520;13.494;2023-11-25T10:32:07;3.05;;;0.60;;
9767;SDS011;4923;52.520;13.494;2023-11-25T10:34:55;7.93;;;1.30;;
9767;SDS011;4923;52.520;13.494;2023-11-25T10:37:43;1.65;;;0.80;;
9767;SDS011;4923;52.520;13.494;2023-11-25T10:40:31;2.22;;;0.80;;
9767;SDS011;4923;52.520;13.494;2023-11-25T10:43:19;4.43;;;0.70;;
9767;SDS011;4923;52.520;13.494;2023-11-25T10:46:06;5.78;;;1.40;;
9767;SDS011;4923;52.520;13.494;2023-11-25T10:48:55;1.15;;;0.55;;
9767;SDS011;4923;52.520;13.494;2023-11-25T10:51:42;4.55;;;0.80;;
9767;SDS011;4923;52.520;13.494;2023-11-25T10:54:30;4.60;;;1.20;;
9767;SDS011;4923;52.520;13.494;2023-11-25T10:57:20;1.35;;;1.00;;
9767;SDS011;4923;52.520;13.494;2023-11-25T11:00:09;7.32;;;1.10;;
9767;SDS011;4923;52.520;13.494;2023-11-25T11:02:57;1.67;;;0.90;;
9767;SDS011;4923;52.520;13.494;2023-11-25T11:05:53;2.05;;;1.10;;
9767;SDS011;4923;52.520;13.494;2023-11-25T11:08:42;12.15;;;2.38;;
9767;SDS011;4923;52.520;13.494;2023-11-25T11:11:35;7.45;;;1.55;;
9767;SDS011;4923;52.520;13.494;2023-11-25T11:14:33;3.78;;;1.45;;
9767;SDS011;4923;52.520;13.494;2023-11-25T11:17:23;3.30;;;1.30;;
9767;SDS011;4923;52.520;13.494;2023-11-25T11:20:17;1.75;;;1.13;;
9767;SDS011;4923;52.520;13.494;2023-11-25T11:23:08;2.13;;;1.13;;
9767;SDS011;4923;52.520;13.494;2023-11-25T11:25:56;3.28;;;1.15;;
9767;SDS011;4923;52.520;13.494;2023-11-25T11:28:51;5.68;;;1.85;;
9767;SDS011;4923;52.520;13.494;2023-11-25T11:31:56;2.97;;;1.63;;
9767;SDS011;4923;52.520;13.494;2023-11-25T11:34:43;4.13;;;1.38;;
9767;SDS011;4923;52.520;13.494;2023-11-25T11:37:34;1.30;;;0.80;;
9767;SDS011;4923;52.520;13.494;2023-11-25T11:40:24;4.10;;;1.00;;
9767;SDS011;4923;52.520;13.494;2023-11-25T11:43:12;4.97;;;1.05;;
9767;SDS011;4923;52.520;13.494;2023-11-25T11:46:04;1.70;;;1.23;;
9767;SDS011;4923;52.520;13.494;2023-11-25T11:48:51;4.93;;;1.27;;
9767;SDS011;4923;52.520;13.494;2023-11-25T11:51:41;1.30;;;1.20;;
9767;SDS011;4923;52.520;13.494;2023-11-25T11:54:45;2.25;;;0.90;;
9767;SDS011;4923;52.520;13.494;2023-11-25T11:57:33;1.77;;;0.90;;
9767;SDS011;4923;52.520;13.494;2023-11-25T12:00:54;5.38;;;0.98;;
9767;SDS011;4923;52.520;13.494;2023-11-25T12:03:53;1.40;;;1.05;;
9767;SDS011;4923;52.520;13.494;2023-11-25T12:06:40;2.22;;;0.90;;
9767;SDS011;4923;52.520;13.494;2023-11-25T12:09:27;1.13;;;1.13;;
9767;SDS011;4923;52.520;13.494;2023-11-25T12:12:13;2.60;;;0.85;;
9767;SDS011;4923;52.520;13.494;2023-11-25T12:15:03;5.80;;;0.70;;
9767;SDS011;4923;52.520;13.494;2023-11-25T12:17:51;2.65;;;0.60;;
9767;SDS011;4923;52.520;13.494;2023-11-25T12:20:39;0.73;;;0.73;;
9767;SDS011;4923;52.520;13.494;2023-11-25T12:23:25;0.88;;;0.88;;
9767;SDS011;4923;52.520;13.494;2023-11-25T12:26:13;1.55;;;1.00;;
9767;SDS011;4923;52.520;13.494;2023-11-25T12:29:00;1.17;;;1.02;;
9767;SDS011;4923;52.520;13.494;2023-11-25T12:31:48;1.75;;;0.80;;
9767;SDS011;4923;52.520;13.494;2023-11-25T12:34:35;0.70;;;0.70;;
9767;SDS011;4923;52.520;13.494;2023-11-25T12:37:22;0.70;;;0.70;;
9767;SDS011;4923;52.520;13.494;2023-11-25T12:40:16;2.35;;;0.90;;
9767;SDS011;4923;52.520;13.494;2023-11-25T12:43:05;2.30;;;0.68;;
9767;SDS011;4923;52.520;13.494;2023-11-25T12:45:53;0.40;;;0.40;;
9767;SDS011;4923;52.520;13.494;2023-11-25T12:48:41;0.50;;;0.50;;
9767;SDS011;4923;52.520;13.494;2023-11-25T12:51:29;0.90;;;0.40;;
9767;SDS011;4923;52.520;13.494;2023-11-25T12:54:42;1.38;;;0.50;;
9767;SDS011;4923;52.520;13.494;2023-11-25T12:57:29;0.50;;;0.50;;
9767;SDS011;4923;52.520;13.494;2023-11-25T13:00:18;0.50;;;0.50;;
9767;SDS011;4923;52.520;13.494;2023-11-25T13:03:08;0.40;;;0.40;;
9767;SDS011;4923;52.520;13.494;2023-11-25T13:06:00;0.70;;;0.70;;
9767;SDS011;4923;52.520;13.494;2023-11-25T13:08:47;0.70;;;0.70;;
9767;SDS011;4923;52.520;13.494;2023-11-25T13:11:34;0.80;;;0.80;;
9767;SDS011;4923;52.520;13.494;2023-11-25T13:14:21;3.13;;;0.70;;
9767;SDS011;4923;52.520;13.494;2023-11-25T13:17:08;2.60;;;1.60;;
9767;SDS011;4923;52.520;13.494;2023-11-25T13:19:55;1.10;;;1.00;;
9767;SDS011;4923;52.520;13.494;2023-11-25T13:22:44;0.80;;;0.80;;
9767;SDS011;4923;52.520;13.494;2023-11-25T13:25:30;0.80;;;0.80;;
9767;SDS011;4923;52.520;13.494;2023-11-25T13:28:18;0.70;;;0.70;;
9767;SDS011;4923;52.520;13.494;2023-11-25T13:31:05;0.70;;;0.70;;
9767;SDS011;4923;52.520;13.494;2023-11-25T13:33:52;0.70;;;0.70;;
9767;SDS011;4923;52.520;13.494;2023-11-25T13:36:40;0.90;;;0.90;;
9767;SDS011;4923;52.520;13.494;2023-11-25T13:39:30;0.73;;;0.73;;
9767;SDS011;4923;52.520;13.494;2023-11-25T13:42:17;0.90;;;0.90;;
9767;SDS011;4923;52.520;13.494;2023-11-25T13:45:07;4.22;;;1.25;;
9767;SDS011;4923;52.520;13.494;2023-11-25T13:47:55;0.93;;;0.93;;
9767;SDS011;4923;52.520;13.494;2023-11-25T13:50:42;0.70;;;0.70;;
9767;SDS011;4923;52.520;13.494;2023-11-25T13:53:29;0.90;;;0.90;;
9767;SDS011;4923;52.520;13.494;2023-11-25T13:56:18;2.15;;;1.05;;
9767;SDS011;4923;52.520;13.494;2023-11-25T13:59:05;0.88;;;0.88;;
9767;SDS011;4923;52.520;13.494;2023-11-25T14:01:52;0.95;;;0.93;;
9767;SDS011;4923;52.520;13.494;2023-11-25T14:04:39;8.82;;;3.15;;
9767;SDS011;4923;52.520;13.494;2023-11-25T14:07:27;4.70;;;2.28;;
9767;SDS011;4923;52.520;13.494;2023-11-25T14:10:14;9.70;;;3.40;;
9767;SDS011;4923;52.520;13.494;2023-11-25T14:13:03;1.00;;;1.00;;
9767;SDS011;4923;52.520;13.494;2023-11-25T14:15:51;5.95;;;2.20;;
9767;SDS011;4923;52.520;13.494;2023-11-25T14:18:38;8.40;;;3.85;;
9767;SDS011;4923;52.520;13.494;2023-11-25T14:21:24;6.88;;;3.20;;
9767;SDS011;4923;52.520;13.494;2023-11-25T14:24:11;1.52;;;1.42;;
9767;SDS011;4923;52.520;13.494;2023-11-25T14:26:58;1.40;;;1.30;;
9767;SDS011;4923;52.520;13.494;2023-11-25T14:29:47;1.25;;;1.23;;
9767;SDS011;4923;52.520;13.494;2023-11-25T14:32:34;1.40;;;1.40;;
9767;SDS011;4923;52.520;13.494;2023-11-25T14:35:21;2.25;;;1.50;;
9767;SDS011;4923;52.520;13.494;2023-11-25T14:38:08;2.22;;;2.03;;
9767;SDS011;4923;52.520;13.494;2023-11-25T14:40:56;2.63;;;1.50;;
9767;SDS011;4923;52.520;13.494;2023-11-25T14:43:43;2.05;;;1.42;;
9767;SDS011;4923;52.520;13.494;2023-11-25T14:46:31;3.97;;;1.88;;
9767;SDS011;4923;52.520;13.494;2023-11-25T14:49:18;9.18;;;3.03;;
9767;SDS011;4923;52.520;13.494;2023-11-25T14:52:05;13.18;;;4.38;;
9767;SDS011;4923;52.520;13.494;2023-11-25T14:54:52;5.07;;;2.55;;
9767;SDS011;4923;52.520;13.494;2023-11-25T14:57:39;14.68;;;4.93;;
9767;SDS011;4923;52.520;13.494;2023-11-25T15:00:26;8.35;;;2.92;;
9767;SDS011;4923;52.520;13.494;2023-11-25T15:03:16;11.65;;;2.90;;
9767;SDS011;4923;52.520;13.494;2023-11-25T15:06:03;3.10;;;2.50;;
9767;SDS011;4923;52.520;13.494;2023-11-25T15:08:50;4.22;;;2.20;;
9767;SDS011;4923;52.520;13.494;2023-11-25T15:11:38;2.47;;;2.15;;
9767;SDS011;4923;52.520;13.494;2023-11-25T15:14:25;4.53;;;2.65;;
9767;SDS011;4923;52.520;13.494;2023-11-25T15:17:12;3.42;;;2.28;;
9767;SDS011;4923;52.520;13.494;2023-11-25T15:20:00;4.72;;;1.90;;
9767;SDS011;4923;52.520;13.494;2023-11-25T15:22:47;3.80;;;1.90;;
9767;SDS011;4923;52.520;13.494;2023-11-25T15:25:36;6.78;;;1.92;;
9767;SDS011;4923;52.520;13.494;2023-11-25T15:28:23;3.60;;;3.40;;
9767;SDS011;4923;52.520;13.494;2023-11-25T15:31:10;7.95;;;3.03;;
9767;SDS011;4923;52.520;13.494;2023-11-25T15:33:57;8.80;;;2.70;;
9767;SDS011;4923;52.520;13.494;2023-11-25T15:36:45;7.30;;;2.45;;
9767;SDS011;4923;52.520;13.494;2023-11-25T15:39:32;2.80;;;2.60;;
9767;SDS011;4923;52.520;13.494;2023-11-25T15:42:19;7.00;;;3.15;;
9767;SDS011;4923;52.520;13.494;2023-11-25T15:45:06;4.90;;;2.70;;
9767;SDS011;4923;52.520;13.494;2023-11-25T15:47:53;5.68;;;2.30;;
9767;SDS011;4923;52.520;13.494;2023-11-25T15:50:41;2.55;;;2.35;;
9767;SDS011;4923;52.520;13.494;2023-11-25T15:53:29;8.90;;;2.22;;
9767;SDS011;4923;52.520;13.494;2023-11-25T15:56:16;3.45;;;2.22;;
9767;SDS011;4923;52.520;13.494;2023-11-25T15:59:03;2.20;;;2.10;;
9767;SDS011;4923;52.520;13.494;2023-11-25T16:01:51;2.38;;;1.70;;
9767;SDS011;4923;52.520;13.494;2023-11-25T16:04:39;3.17;;;2.35;;
9767;SDS011;4923;52.520;13.494;2023-11-25T16:07:26;1.77;;;1.77;;
9767;SDS011;4923;52.520;13.494;2023-11-25T16:10:15;2.45;;;1.80;;
9767;SDS011;4923;52.520;13.494;2023-11-25T16:13:02;3.30;;;2.65;;
9767;SDS011;4923;52.520;13.494;2023-11-25T16:15:51;3.35;;;2.00;;
9767;SDS011;4923;52.520;13.494;2023-11-25T16:18:39;2.55;;;2.28;;
9767;SDS011;4923;52.520;13.494;2023-11-25T16:21:25;7.82;;;2.10;;
9767;SDS011;4923;52.520;13.494;2023-11-25T16:24:13;1.77;;;1.67;;
9767;SDS011;4923;52.520;13.494;2023-11-25T16:27:01;2.58;;;2.25;;
9767;SDS011;4923;52.520;13.494;2023-11-25T16:29:49;2.35;;;1.95;;
9767;SDS011;4923;52.520;13.494;2023-11-25T16:32:36;2.17;;;1.75;;
9767;SDS011;4923;52.520;13.494;2023-11-25T16:35:23;3.50;;;2.38;;
9767;SDS011;4923;52.520;13.494;2023-11-25T16:38:10;2.20;;;2.10;;
9767;SDS011;4923;52.520;13.494;2023-11-25T16:40:57;3.70;;;1.98;;
9767;SDS011;4923;52.520;13.494;2023-11-25T16:43:45;2.22;;;1.90;;
9767;SDS011;4923;52.520;13.494;2023-11-25T16:46:32;5.22;;;1.60;;
9767;SDS011;4923;52.520;13.494;2023-11-25T16:49:19;2.80;;;1.60;;
9767;SDS011;4923;52.520;13.494;2023-11-25T16:52:06;2.70;;;2.15;;
9767;SDS011;4923;52.520;13.494;2023-11-25T16:54:53;5.40;;;2.47;;
9767;SDS011;4923;52.520;13.494;2023-11-25T16:57:39;3.75;;;2.00;;
9767;SDS011;4923;52.520;13.494;2023-11-25T17:00:28;3.63;;;2.00;;
9767;SDS011;4923;52.520;13.494;2023-11-25T17:03:15;2.30;;;1.70;;
9767;SDS011;4923;52.520;13.494;2023-11-25T17:06:02;3.20;;;2.78;;